createdAt,value
2023-04-11T00:00:41.266Z,95399.25
2023-04-11T00:03:09.300Z,95392.41
2023-04-11T00:05:37.344Z,95390.34
2023-04-11T00:08:05.333Z,95391.13
2023-04-11T00:10:33.352Z,95389.31
2023-04-11T00:13:01.346Z,95388.75
2023-04-11T00:15:29.552Z,95391.13
2023-04-11T00:17:58.965Z,95397.97
2023-04-11T00:20:27.003Z,95401.97
2023-04-11T00:22:55.001Z,95398.31
2023-04-11T00:25:22.894Z,95407.22
2023-04-11T00:27:50.862Z,95395.13
2023-04-11T00:30:18.916Z,95385.63
2023-04-11T00:32:47.659Z,95377.75
2023-04-11T00:35:17.161Z,95370.94
2023-04-11T00:37:45.705Z,95372.50
2023-04-11T00:40:17.770Z,95362.00
2023-04-11T00:42:45.856Z,95361.56
2023-04-11T00:45:14.143Z,95351.06
2023-04-11T00:47:42.509Z,95347.41
2023-04-11T00:50:13.918Z,95347.41
2023-04-11T00:52:46.300Z,95348.69
2023-04-11T00:55:15.173Z,95349.78
2023-04-11T00:57:43.478Z,95350.09
2023-04-11T01:00:12.603Z,95345.34
2023-04-11T01:03:34.356Z,95345.81
2023-04-11T01:06:02.860Z,95340.81
2023-04-11T01:08:32.286Z,95336.91
2023-04-11T01:11:00.222Z,95328.00
2023-04-11T01:13:29.689Z,95323.22
2023-04-11T01:15:57.824Z,95319.56
2023-04-11T01:18:26.810Z,95333.25
2023-04-11T01:20:55.235Z,95331.19
2023-04-11T01:23:25.077Z,95329.41
2023-04-11T01:25:53.443Z,95334.03
2023-04-11T01:28:22.540Z,95343.88
2023-04-11T01:30:52.093Z,95346.88
2023-04-11T01:33:21.244Z,95346.25
2023-04-11T01:35:49.702Z,95347.59
2023-04-11T01:38:17.740Z,95340.50
2023-04-11T01:40:47.496Z,95339.81
2023-04-11T01:43:15.900Z,95326.56
2023-04-11T01:45:43.864Z,95331.31
2023-04-11T01:48:12.016Z,95328.47
2023-04-11T01:50:39.994Z,95337.91
2023-04-11T01:53:07.982Z,95339.81
2023-04-11T01:55:36.063Z,95329.34
2023-04-11T01:58:05.393Z,95331.00
2023-04-11T02:00:37.045Z,95331.00
2023-04-11T02:03:05.729Z,95338.88
2023-04-11T02:05:33.840Z,95352.88
2023-04-11T02:08:01.957Z,95354.97
2023-04-11T02:10:29.967Z,95374.34
2023-04-11T02:12:57.879Z,95373.47
2023-04-11T02:15:27.199Z,95375.53
2023-04-11T02:17:55.221Z,95370.84
2023-04-11T02:20:23.391Z,95367.31
2023-04-11T02:22:51.433Z,95368.91
2023-04-11T02:25:19.422Z,95361.59
2023-04-11T02:27:47.463Z,95368.91
2023-04-11T02:30:15.418Z,95367.31
2023-04-11T02:32:49.546Z,95358.78
2023-04-11T02:35:17.677Z,95357.78
2023-04-11T02:37:45.649Z,95357.34
2023-04-11T02:40:13.752Z,95357.81
2023-04-11T02:42:43.216Z,95353.03
2023-04-11T02:45:12.884Z,95341.41
2023-04-11T02:47:40.866Z,95354.38
2023-04-11T02:50:12.175Z,95350.47
2023-04-11T02:52:47.831Z,95343.81
2023-04-11T02:55:17.705Z,95341.91
2023-04-11T02:57:45.691Z,95333.78
2023-04-11T03:00:18.257Z,95332.66
2023-04-11T03:02:50.772Z,95333.59
2023-04-11T03:05:24.376Z,95331.13
2023-04-11T03:07:54.502Z,95328.88
2023-04-11T03:10:22.922Z,95322.53
2023-04-11T03:12:51.711Z,95327.53
2023-04-11T03:15:19.922Z,95329.94
2023-04-11T03:17:48.123Z,95338.75
2023-04-11T03:20:19.707Z,95336.00
2023-04-11T03:22:52.157Z,95346.25
2023-04-11T03:25:22.609Z,95350.84
2023-04-11T03:27:52.135Z,95359.00
2023-04-11T03:30:20.106Z,95366.09
2023-04-11T03:32:49.215Z,95362.41
2023-04-11T03:35:20.495Z,95359.66
2023-04-11T03:37:52.094Z,95363.75
2023-04-11T03:40:20.320Z,95367.72
2023-04-11T03:42:54.356Z,95379.84
2023-04-11T03:45:27.111Z,95373.91
2023-04-11T03:48:00.176Z,95375.75
2023-04-11T03:50:36.817Z,95371.94
2023-04-11T03:53:07.227Z,95356.72
2023-04-11T03:55:35.267Z,95351.97
2023-04-11T03:58:05.620Z,95350.13
2023-04-11T04:00:34.305Z,95368.13
2023-04-11T04:03:08.279Z,95374.97
2023-04-11T04:05:38.438Z,95374.25
2023-04-11T04:08:08.336Z,95369.50
2023-04-11T04:10:48.074Z,95356.50
2023-04-11T04:13:16.909Z,95351.63
2023-04-11T04:15:54.383Z,95331.47
2023-04-11T04:18:26.275Z,95334.66
2023-04-11T04:20:54.194Z,95326.34
2023-04-11T04:23:26.856Z,95333.06
2023-04-11T04:26:13.209Z,95326.09
2023-04-11T04:28:46.233Z,95323.25
2023-04-11T04:31:22.427Z,95335.56
2023-04-11T04:33:52.452Z,95318.25
2023-04-11T04:36:25.170Z,95323.28
2023-04-11T04:38:57.548Z,95330.56
2023-04-11T04:41:25.682Z,95332.31
2023-04-11T04:43:59.744Z,95337.97
2023-04-11T04:46:36.954Z,95342.50
2023-04-11T04:49:07.419Z,95352.88
2023-04-11T04:51:37.727Z,95365.81
2023-04-11T04:54:08.323Z,95383.09
2023-04-11T04:56:36.255Z,95378.09
2023-04-11T04:59:04.760Z,95379.63
2023-04-11T05:01:40.359Z,95378.88
2023-04-11T05:04:10.614Z,95367.97
2023-04-11T05:06:49.983Z,95370.41
2023-04-11T05:09:20.012Z,95368.19
2023-04-11T05:11:50.477Z,95370.28
2023-04-11T05:14:22.517Z,95375.63
2023-04-11T05:16:50.563Z,95380.84
2023-04-11T05:19:18.745Z,95387.34
2023-04-11T05:21:50.420Z,95391.78
2023-04-11T05:24:19.805Z,95402.88
2023-04-11T05:26:47.844Z,95417.72
2023-04-11T05:29:19.321Z,95414.41
2023-04-11T05:31:47.325Z,95414.31
2023-04-11T05:34:15.438Z,95422.44
2023-04-11T05:36:46.357Z,95415.63
2023-04-11T05:39:14.313Z,95412.59
2023-04-11T05:41:43.692Z,95405.47
2023-04-11T05:44:11.677Z,95409.09
2023-04-11T05:46:39.669Z,95421.72
2023-04-11T05:49:07.907Z,95411.56
2023-04-11T05:51:35.805Z,95419.69
2023-04-11T05:54:03.763Z,95420.78
2023-04-11T05:56:31.693Z,95408.38
2023-04-11T05:59:00.928Z,95414.81
2023-04-11T06:01:30.370Z,95423.06
2023-04-11T06:03:58.728Z,95423.91
2023-04-11T06:06:27.638Z,95422.97
2023-04-11T06:08:55.615Z,95424.41
2023-04-11T06:11:25.162Z,95418.63
2023-04-11T06:13:53.091Z,95403.09
2023-04-11T06:16:22.446Z,95397.47
2023-04-11T06:18:50.364Z,95400.72
2023-04-11T06:21:18.318Z,95404.47
2023-04-11T06:23:46.252Z,95410.63
2023-04-11T06:26:14.175Z,95413.63
2023-04-11T06:28:42.101Z,95417.38
2023-04-11T06:31:11.181Z,95421.22
2023-04-11T06:33:40.694Z,95420.56
2023-04-11T06:36:09.347Z,95423.84
2023-04-11T06:38:38.306Z,95418.22
2023-04-11T06:41:06.620Z,95431.03
2023-04-11T06:43:34.534Z,95437.69
2023-04-11T06:46:02.452Z,95433.78
2023-04-11T06:48:30.324Z,95437.69
2023-04-11T06:50:59.592Z,95446.13
2023-04-11T06:53:27.813Z,95450.47
2023-04-11T06:55:55.785Z,95459.19
2023-04-11T06:58:23.816Z,95454.31
2023-04-11T07:00:52.994Z,95467.63
2023-04-11T07:03:21.172Z,95464.88
2023-04-11T07:05:49.157Z,95469.78
2023-04-11T07:08:18.452Z,95468.72
2023-04-11T07:10:46.342Z,95459.19
2023-04-11T07:13:14.295Z,95457.88
2023-04-11T07:15:42.240Z,95466.16
2023-04-11T07:18:10.297Z,95468.47
2023-04-11T07:20:38.246Z,95481.06
2023-04-11T07:23:06.159Z,95482.44
2023-04-11T07:25:35.581Z,95488.38
2023-04-11T07:28:07.418Z,95494.63
2023-04-11T07:30:36.180Z,95500.31
2023-04-11T07:33:04.432Z,95497.47
2023-04-11T07:35:33.531Z,95505.25
2023-04-11T07:38:01.625Z,95506.41
2023-04-11T07:40:29.903Z,95505.94
2023-04-11T07:42:59.348Z,95496.50
2023-04-11T07:45:27.317Z,95497.09
2023-04-11T07:47:55.248Z,95489.94
2023-04-11T07:50:23.161Z,95483.13
2023-04-11T07:52:51.398Z,95471.66
2023-04-11T07:55:19.415Z,95470.63
2023-04-11T07:57:47.528Z,95460.03
2023-04-11T08:00:23.411Z,95456.41
2023-04-11T08:02:52.491Z,95452.75
2023-04-11T08:05:20.842Z,95469.47
2023-04-11T08:07:48.784Z,95464.25
2023-04-11T08:10:16.716Z,95471.81
2023-04-11T08:12:44.631Z,95463.63
2023-04-11T08:15:12.829Z,95466.81
2023-04-11T08:17:43.791Z,95468.41
2023-04-11T08:20:13.941Z,95463.63
2023-04-11T08:22:44.780Z,95481.09
2023-04-11T08:25:14.476Z,95476.66
2023-04-11T08:27:42.707Z,95473.81
2023-04-11T08:30:10.974Z,95472.22
2023-04-11T08:32:38.969Z,95476.31
2023-04-11T08:35:09.303Z,95490.84
2023-04-11T08:37:37.236Z,95479.94
2023-04-11T08:40:07.307Z,95482.56
2023-04-11T08:42:36.199Z,95480.38
2023-04-11T08:45:08.548Z,95475.06
2023-04-11T08:47:37.298Z,95481.66
2023-04-11T08:50:06.102Z,95479.06
2023-04-11T08:52:37.195Z,95494.34
2023-04-11T08:55:05.541Z,95487.06
2023-04-11T08:57:34.825Z,95495.13
2023-04-11T09:00:11.207Z,95488.22
2023-04-11T09:02:56.405Z,95490.25
2023-04-11T09:05:29.595Z,95495.78
2023-04-11T09:08:00.118Z,95491.41
2023-04-11T09:10:28.364Z,95490.94
2023-04-11T09:12:57.459Z,95496.19
2023-04-11T09:15:27.645Z,95488.22
2023-04-11T09:17:59.677Z,95486.72
2023-04-11T09:20:30.483Z,95489.09
2023-04-11T09:23:00.371Z,95487.50
2023-04-11T09:25:28.909Z,95493.16
2023-04-11T09:28:09.074Z,95494.06
2023-04-11T09:30:37.250Z,95492.19
2023-04-11T09:33:20.287Z,95493.59
2023-04-11T09:35:49.580Z,95493.09
2023-04-11T09:38:31.183Z,95494.13
2023-04-11T09:40:59.812Z,95482.44
2023-04-11T09:43:27.748Z,95472.91
2023-04-11T09:46:10.144Z,95478.72
2023-04-11T09:48:46.590Z,95478.72
2023-04-11T09:51:24.323Z,95472.13
2023-04-11T09:54:05.457Z,95469.22
2023-04-11T09:56:35.512Z,95466.13
2023-04-11T09:59:04.788Z,95470.81
2023-04-11T10:01:33.335Z,95474.81
2023-04-11T10:04:01.937Z,95469.56
2023-04-11T10:06:34.019Z,95470.72
2023-04-11T10:09:12.866Z,95461.88
2023-04-11T10:11:43.214Z,95461.41
2023-04-11T10:14:31.432Z,95455.22
2023-04-11T10:17:23.047Z,95458.31
2023-04-11T10:19:56.470Z,95465.41
2023-04-11T10:23:00.116Z,95451.53
2023-04-11T10:25:29.632Z,95445.31
2023-04-11T10:28:02.281Z,95450.28
2023-04-11T10:31:01.718Z,95450.66
2023-04-11T10:33:29.772Z,95451.81
2023-04-11T10:35:59.438Z,95443.28
2023-04-11T10:38:49.195Z,95448.53
2023-04-11T10:41:31.452Z,95448.78
2023-04-11T10:44:18.168Z,95444.19
2023-04-11T10:46:51.510Z,95457.56
2023-04-11T10:49:39.605Z,95444.16
2023-04-11T10:52:25.308Z,95459.63
2023-04-11T10:54:54.506Z,95444.63
2023-04-11T10:57:23.912Z,95444.03
2023-04-11T10:59:59.316Z,95442.56
2023-04-11T11:02:42.736Z,95436.88
2023-04-11T11:05:21.935Z,95432.44
2023-04-11T11:07:52.021Z,95427.81
2023-04-11T11:10:43.336Z,95418.34
2023-04-11T11:13:14.181Z,95418.00
2023-04-11T11:15:48.917Z,95410.38
2023-04-11T11:18:17.889Z,95412.09
2023-04-11T11:20:45.877Z,95401.03
2023-04-11T11:23:14.012Z,95404.81
2023-04-11T11:25:41.979Z,95397.50
2023-04-11T11:28:10.812Z,95403.88
2023-04-11T11:30:54.087Z,95406.59
2023-04-11T11:33:26.380Z,95409.69
2023-04-11T11:35:57.704Z,95417.22
2023-04-11T11:38:28.810Z,95419.47
2023-04-11T11:40:57.620Z,95414.13
2023-04-11T11:43:27.333Z,95410.00
2023-04-11T11:46:11.064Z,95410.34
2023-04-11T11:48:39.229Z,95388.31
2023-04-11T11:51:07.768Z,95378.00
2023-04-11T11:53:35.882Z,95380.06
2023-04-11T11:56:14.280Z,95379.31
2023-04-11T11:58:46.065Z,95387.00
2023-04-11T12:01:17.274Z,95380.22
2023-04-11T12:03:48.131Z,95394.94
2023-04-11T12:06:16.353Z,95388.19
2023-04-11T12:08:50.183Z,95394.09
2023-04-11T12:11:18.486Z,95403.47
2023-04-11T12:13:46.845Z,95400.22
2023-04-11T12:16:16.307Z,95398.84
2023-04-11T12:18:45.549Z,95393.00
2023-04-11T12:21:13.649Z,95395.13
2023-04-11T12:23:41.604Z,95392.94
2023-04-11T12:26:09.616Z,95386.69
2023-04-11T12:28:37.566Z,95401.63
2023-04-11T12:31:05.901Z,95400.59
2023-04-11T12:33:36.181Z,95395.47
2023-04-11T12:36:04.114Z,95401.84
2023-04-11T12:38:32.002Z,95397.03
2023-04-11T12:41:19.792Z,95393.84
2023-04-11T12:43:47.864Z,95398.88
2023-04-11T12:46:17.236Z,95392.47
2023-04-11T12:48:46.558Z,95382.19
2023-04-11T12:51:14.450Z,95391.75
2023-04-11T12:53:42.333Z,95391.97
2023-04-11T12:56:10.492Z,95377.66
2023-04-11T12:58:38.411Z,95383.22
2023-04-11T13:01:07.520Z,95374.34
2023-04-11T13:03:35.519Z,95363.38
2023-04-11T13:06:05.053Z,95357.31
2023-04-11T13:08:32.986Z,95354.47
2023-04-11T13:11:01.007Z,95357.22
2023-04-11T13:13:28.889Z,95363.56
2023-04-11T13:15:56.811Z,95366.59
2023-04-11T13:18:24.977Z,95354.22
2023-04-11T13:20:53.586Z,95353.00
2023-04-11T13:23:22.887Z,95351.66
2023-04-11T13:25:50.899Z,95354.47
2023-04-11T13:28:18.853Z,95354.97
2023-04-11T13:30:46.849Z,95349.28
2023-04-11T13:33:14.769Z,95344.22
2023-04-11T13:35:42.896Z,95336.91
2023-04-11T13:38:11.265Z,95337.94
2023-04-11T13:40:42.780Z,95339.28
2023-04-11T13:43:11.107Z,95333.72
2023-04-11T13:45:39.053Z,95326.06
2023-04-11T13:48:07.086Z,95325.31
2023-04-11T13:50:35.860Z,95309.53
2023-04-11T13:53:03.892Z,95308.41
2023-04-11T13:55:31.932Z,95303.06
2023-04-11T13:58:01.224Z,95296.91
2023-04-11T14:00:29.255Z,95295.50
2023-04-11T14:02:57.333Z,95280.44
2023-04-11T14:05:27.065Z,95281.75
2023-04-11T14:07:55.076Z,95277.16
2023-04-11T14:10:23.021Z,95279.81
2023-04-11T14:12:51.182Z,95275.34
2023-04-11T14:15:21.900Z,95279.44
2023-04-11T14:17:50.073Z,95275.16
2023-04-11T14:20:18.078Z,95274.50
2023-04-11T14:22:46.708Z,95270.75
2023-04-11T14:25:15.756Z,95268.88
2023-04-11T14:27:43.951Z,95263.72
2023-04-11T14:30:13.527Z,95258.38
2023-04-11T14:32:43.114Z,95259.19
2023-04-11T14:35:11.235Z,95254.09
2023-04-11T14:37:39.187Z,95254.31
2023-04-11T14:40:10.137Z,95257.03
2023-04-11T14:42:38.180Z,95251.19
2023-04-11T14:45:07.467Z,95241.28
2023-04-11T14:47:35.755Z,95246.03
2023-04-11T14:50:05.384Z,95245.00
2023-04-11T14:52:33.363Z,95233.06
2023-04-11T14:55:01.295Z,95219.09
2023-04-11T14:57:45.129Z,95213.06
2023-04-11T15:00:18.979Z,95213.19
2023-04-11T15:02:48.400Z,95214.03
2023-04-11T15:05:19.815Z,95208.25
2023-04-11T15:07:49.386Z,95214.63
2023-04-11T15:10:19.654Z,95208.09
2023-04-11T15:12:47.742Z,95209.38
2023-04-11T15:15:16.294Z,95208.47
2023-04-11T15:17:46.538Z,95199.75
2023-04-11T15:20:15.664Z,95210.22
2023-04-11T15:22:46.384Z,95207.38
2023-04-11T15:25:16.674Z,95197.84
2023-04-11T15:27:45.093Z,95195.09
2023-04-11T15:30:13.644Z,95191.59
2023-04-11T15:32:43.819Z,95197.69
2023-04-11T15:35:12.439Z,95198.94
2023-04-11T15:37:41.084Z,95193.69
2023-04-11T15:40:12.499Z,95194.16
2023-04-11T15:42:40.783Z,95198.13
2023-04-11T15:45:09.325Z,95189.34
2023-04-11T15:47:37.283Z,95188.59
2023-04-11T15:50:05.754Z,95191.19
2023-04-11T15:52:33.718Z,95196.66
2023-04-11T15:55:01.595Z,95190.03
2023-04-11T15:57:30.989Z,95185.88
2023-04-11T15:59:59.745Z,95188.31
2023-04-11T16:02:28.281Z,95187.06
2023-04-11T16:04:56.544Z,95186.56
2023-04-11T16:07:25.064Z,95185.31
2023-04-11T16:09:53.021Z,95186.28
2023-04-11T16:12:21.090Z,95175.31
2023-04-11T16:14:50.375Z,95174.81
2023-04-11T16:17:19.079Z,95172.19
2023-04-11T16:19:47.102Z,95170.03
2023-04-11T16:22:15.027Z,95180.53
2023-04-11T16:24:42.946Z,95163.38
2023-04-11T16:27:10.909Z,95164.25
2023-04-11T16:29:38.880Z,95163.06
2023-04-11T16:32:08.415Z,95166.56
2023-04-11T16:34:36.572Z,95161.56
2023-04-11T16:37:04.501Z,95166.94
2023-04-11T16:39:32.431Z,95166.56
2023-04-11T16:42:01.877Z,95162.09
2023-04-11T16:44:29.780Z,95160.88
2023-04-11T16:46:57.690Z,95157.03
2023-04-11T16:49:26.987Z,95160.34
2023-04-11T16:51:55.008Z,95147.81
2023-04-11T16:54:22.931Z,95152.47
2023-04-11T16:56:50.871Z,95135.75
2023-04-11T16:59:19.679Z,95140.00
2023-04-11T17:01:47.764Z,95137.63
2023-04-11T17:04:16.209Z,95133.31
2023-04-11T17:06:46.293Z,95132.81
2023-04-11T17:09:14.526Z,95124.88
2023-04-11T17:11:42.446Z,95123.78
2023-04-11T17:14:10.470Z,95124.75
2023-04-11T17:16:38.418Z,95117.38
2023-04-11T17:19:06.351Z,95119.03
2023-04-11T17:21:34.286Z,95117.44
2023-04-11T17:24:03.674Z,95116.34
2023-04-11T17:26:31.668Z,95111.97
2023-04-11T17:29:00.030Z,95105.56
2023-04-11T17:31:29.542Z,95103.31
2023-04-11T17:33:57.673Z,95113.31
2023-04-11T17:36:25.826Z,95119.06
2023-04-11T17:38:54.780Z,95120.16
2023-04-11T17:41:24.033Z,95123.34
2023-04-11T17:43:51.908Z,95129.41
2023-04-11T17:46:20.403Z,95131.13
2023-04-11T17:48:48.417Z,95130.97
2023-04-11T17:51:16.381Z,95131.91
2023-04-11T17:53:44.300Z,95140.34
2023-04-11T17:56:12.366Z,95129.88
2023-04-11T17:58:44.308Z,95133.66
2023-04-11T18:01:12.541Z,95130.16
2023-04-11T18:03:41.267Z,95134.94
2023-04-11T18:06:10.878Z,95127.16
2023-04-11T18:08:50.322Z,95119.84
2023-04-11T18:11:19.271Z,95131.91
2023-04-11T18:13:50.367Z,95127.00
2023-04-11T18:16:18.793Z,95128.59
2023-04-11T18:18:47.267Z,95126.22
2023-04-11T18:21:15.919Z,95126.03
2023-04-11T18:23:43.823Z,95121.28
2023-04-11T18:26:11.713Z,95131.28
2023-04-11T18:28:39.614Z,95126.50
2023-04-11T18:31:09.484Z,95125.84
2023-04-11T18:33:41.429Z,95128.03
2023-04-11T18:36:11.134Z,95121.28
2023-04-11T18:38:39.066Z,95118.56
2023-04-11T18:41:07.744Z,95117.88
2023-04-11T18:43:38.180Z,95113.78
2023-04-11T18:46:09.637Z,95117.88
2023-04-11T18:48:37.786Z,95115.66
2023-04-11T18:51:06.605Z,95124.47
2023-04-11T18:53:36.541Z,95128.00
2023-04-11T18:56:04.984Z,95118.00
2023-04-11T18:58:34.492Z,95110.53
2023-04-11T19:01:14.027Z,95113.56
2023-04-11T19:03:44.950Z,95108.31
2023-04-11T19:06:13.249Z,95108.31
2023-04-11T19:08:41.643Z,95111.50
2023-04-11T19:11:09.581Z,95109.91
2023-04-11T19:13:37.571Z,95114.66
2023-04-11T19:16:06.580Z,95114.34
2023-04-11T19:18:34.699Z,95112.09
2023-04-11T19:21:04.069Z,95108.13
2023-04-11T19:23:32.067Z,95104.47
2023-04-11T19:26:00.711Z,95110.19
2023-04-11T19:28:28.834Z,95108.13
2023-04-11T19:30:56.779Z,95097.63
2023-04-11T19:33:26.189Z,95098.91
2023-04-11T19:35:54.416Z,95089.63
2023-04-11T19:38:23.815Z,95089.38
2023-04-11T19:40:51.752Z,95084.94
2023-04-11T19:43:19.785Z,95075.59
2023-04-11T19:45:47.770Z,95067.16
2023-04-11T19:48:16.259Z,95061.38
2023-04-11T19:50:44.370Z,95069.66
2023-04-11T19:53:12.279Z,95061.25
2023-04-11T19:55:41.818Z,95062.28
2023-04-11T19:58:09.739Z,95057.63
2023-04-11T20:00:38.592Z,95059.69
2023-04-11T20:03:09.696Z,95067.06
2023-04-11T20:05:37.733Z,95059.91
2023-04-11T20:08:05.811Z,95060.63
2023-04-11T20:10:34.213Z,95053.78
2023-04-11T20:13:03.790Z,95052.75
2023-04-11T20:15:32.017Z,95045.84
2023-04-11T20:18:00.819Z,95043.25
2023-04-11T20:20:29.428Z,95028.56
2023-04-11T20:22:57.887Z,95020.03
2023-04-11T20:25:25.870Z,95012.66
2023-04-11T20:27:53.817Z,95005.53
2023-04-11T20:30:23.158Z,95005.66
2023-04-11T20:32:51.222Z,95004.53
2023-04-11T20:35:19.537Z,94993.63
2023-04-11T20:37:49.833Z,94977.44
2023-04-11T20:40:18.200Z,94984.81
2023-04-11T20:42:47.630Z,94979.03
2023-04-11T20:45:17.210Z,94963.66
2023-04-11T20:47:47.740Z,94951.44
2023-04-11T20:50:17.714Z,94945.75
2023-04-11T20:52:50.519Z,94932.09
2023-04-11T20:55:18.857Z,94935.28
2023-04-11T20:57:46.775Z,94930.03
2023-04-11T21:00:17.150Z,94925.94
2023-04-11T21:02:49.962Z,94920.72
2023-04-11T21:05:20.341Z,94914.44
2023-04-11T21:07:48.355Z,94913.91
2023-04-11T21:10:16.676Z,94918.09
2023-04-11T21:12:51.183Z,94922.78
2023-04-11T21:15:19.866Z,94931.19
2023-04-11T21:17:50.133Z,94921.81
2023-04-11T21:20:22.258Z,94924.19
2023-04-11T21:22:52.883Z,94927.38
2023-04-11T21:25:21.420Z,94928.16
2023-04-11T21:27:49.871Z,94932.13
2023-04-11T21:30:17.812Z,94927.69
2023-04-11T21:32:45.758Z,94928.72
2023-04-11T21:35:15.117Z,94935.00
2023-04-11T21:37:43.006Z,94937.06
2023-04-11T21:40:12.729Z,94941.19
2023-04-11T21:42:40.984Z,94938.00
2023-04-11T21:45:09.925Z,94930.16
2023-04-11T21:47:37.926Z,94922.78
2023-04-11T21:50:06.672Z,94931.63
2023-04-11T21:52:35.956Z,94917.06
2023-04-11T21:55:06.462Z,94915.00
2023-04-11T21:57:36.354Z,94920.25
2023-04-11T22:00:05.199Z,94925.47
2023-04-11T22:02:40.033Z,94922.78
2023-04-11T22:05:09.960Z,94927.53
2023-04-11T22:07:39.546Z,94929.13
2023-04-11T22:10:10.518Z,94916.41
2023-04-11T22:12:39.062Z,94923.22
2023-04-11T22:15:08.033Z,94918.19
2023-04-11T22:17:37.219Z,94911.66
2023-04-11T22:20:08.311Z,94899.84
2023-04-11T22:22:36.405Z,94896.13
2023-04-11T22:25:06.981Z,94886.47
2023-04-11T22:27:35.272Z,94894.06
2023-04-11T22:30:03.380Z,94891.44
2023-04-11T22:32:31.313Z,94885.19
2023-04-11T22:34:59.997Z,94886.78
2023-04-11T22:37:27.985Z,94882.03
2023-04-11T22:39:55.891Z,94883.06
2023-04-11T22:42:25.711Z,94866.78
2023-04-11T22:44:53.608Z,94872.03
2023-04-11T22:47:21.891Z,94865.66
2023-04-11T22:49:50.610Z,94859.31
2023-04-11T22:52:24.305Z,94861.06
2023-04-11T22:54:52.573Z,94843.38
2023-04-11T22:57:20.556Z,94828.41
2023-04-11T22:59:49.831Z,94813.34
2023-04-11T23:02:17.851Z,94808.88
2023-04-11T23:04:45.909Z,94824.28
2023-04-11T23:07:13.976Z,94835.22
2023-04-11T23:09:42.610Z,94833.63
2023-04-11T23:12:10.558Z,94841.41
2023-04-11T23:14:38.475Z,94832.13
2023-04-11T23:17:07.755Z,94834.91
2023-04-11T23:19:35.746Z,94830.72
2023-04-11T23:22:03.714Z,94831.31
2023-04-11T23:24:31.683Z,94826.59
2023-04-11T23:26:59.611Z,94829.03
2023-04-11T23:29:27.616Z,94820.31
2023-04-11T23:31:55.853Z,94815.56
2023-04-11T23:34:25.145Z,94816.59
2023-04-11T23:36:53.059Z,94825.53
2023-04-11T23:39:21.553Z,94813.34
2023-04-11T23:41:49.540Z,94809.03
2023-04-11T23:44:17.461Z,94812.78
2023-04-11T23:46:45.442Z,94818.56
2023-04-11T23:49:13.364Z,94819.69
2023-04-11T23:51:43.219Z,94800.34
2023-04-11T23:54:11.322Z,94806.59
2023-04-11T23:56:39.298Z,94802.88
2023-04-11T23:59:07.176Z,94801.41
